Annabella, Utah
Current Conditions -  °F | °C
As of 7:35 AM on Monday 26 Jan 2015 (Local Time) from KDTA Reporting Station
Clear Clear  
Wind Chill: 24°   Ceiling: Unl
Heat Index: 29°   Visibility: 10mi
Dew Point: 27°   Wind: 5mph
Humidity: 94%   Direction: 40°NE
Pressure: 30.38"   Gusts: NA
Location:  38.71°N, 112.06°W
Report Text: KDTA 261435Z AUTO 04004KT 10SM CLR M02/M03 A3038 RMK AO1 T10171026
Loading
Personal Weather Stations






























Interactive Weather Map New forecast layout! Learn more

10-Day Weather Forecast

Advertisements
Track Severe Weather on mobile